Hercules I — SVA7380 — position and weather

sailwx.info

Track history (hours):
 
Tides and Currents Weather Stations Pressure Air Temp Water Temp Dewpoint Dewpoint Depression Visibility Wind Speed Wind Dir Waves Ship Positions

Hercules I

Last reported at 2018-Feb-25 02:41 UTC. Time now 2018-Feb-25 23:34 UTC.
Position N 38°12' E 024°06'.

Length 89 m; draft 5.2 m.

Type: Cargo ship. MMSI: 241503000.

Date/timePositionNaut miles runAvg speedWind from/ knotsBaromVisibWave heightAir tempDewpointWater temp
2018-Feb-25 02:41N 38°12' E 024°06'1 7.2
2018-Feb-25 02:28N 38°11' E 024°07'3 7.2
2018-Feb-25 02:00N 38°08' E 024°08'4 7.2
2018-Feb-25 01:30N 38°04' E 024°08'4 7.1
2018-Feb-25 01:00N 38°01' E 024°09'4 7.0
2018-Feb-25 00:28N 37°57' E 024°10'  
2018-Feb-21 14:17N 37°26' E 025°56'2 7.2
2018-Feb-21 14:00N 37°27' E 025°54'4 7.3
2018-Feb-21 13:30N 37°30' E 025°50'4 7.0
2018-Feb-21 12:55N 37°33' E 025°46'3 7.3
2018-Feb-21 12:30N 37°35' E 025°44'4 7.2
2018-Feb-21 11:59N 37°37' E 025°40'3 7.2
2018-Feb-21 11:30N 37°40' E 025°37'3 6.9
2018-Feb-21 11:00N 37°42' E 025°33'4 6.9
2018-Feb-21 10:30N 37°44' E 025°30'3 7.0
2018-Feb-21 10:00N 37°46' E 025°27'3 6.8
2018-Feb-21 09:30N 37°49' E 025°24'3 6.8
2018-Feb-21 09:00N 37°51' E 025°21'4 7.3
2018-Feb-21 08:30N 37°53' E 025°17'  
Track history (hours):
 
Tides and Currents Weather Stations Pressure Air Temp Water Temp Dewpoint Dewpoint Depression Visibility Wind Speed Wind Dir Waves Ship Positions

Hercules I

Last reported at 2018-Feb-25 02:41 UTC. Time now 2018-Feb-25 23:34 UTC.
Position N 38°12' E 024°06'.

Length 89 m; draft 5.2 m.

Type: Cargo ship. MMSI: 241503000.

Date/timePositionNaut miles runAvg speedWind from/ knotsBaromVisibWave heightAir tempDewpointWater temp
2018-Feb-25 02:41N 38°12' E 024°06'1 7.2
2018-Feb-25 02:28N 38°11' E 024°07'3 7.2
2018-Feb-25 02:00N 38°08' E 024°08'4 7.2
2018-Feb-25 01:30N 38°04' E 024°08'4 7.1
2018-Feb-25 01:00N 38°01' E 024°09'4 7.0
2018-Feb-25 00:28N 37°57' E 024°10'  
2018-Feb-21 14:17N 37°26' E 025°56'2 7.2
2018-Feb-21 14:00N 37°27' E 025°54'4 7.3
2018-Feb-21 13:30N 37°30' E 025°50'4 7.0
2018-Feb-21 12:55N 37°33' E 025°46'3 7.3
2018-Feb-21 12:30N 37°35' E 025°44'4 7.2
2018-Feb-21 11:59N 37°37' E 025°40'3 7.2
2018-Feb-21 11:30N 37°40' E 025°37'3 6.9
2018-Feb-21 11:00N 37°42' E 025°33'4 6.9
2018-Feb-21 10:30N 37°44' E 025°30'3 7.0
2018-Feb-21 10:00N 37°46' E 025°27'3 6.8
2018-Feb-21 09:30N 37°49' E 025°24'3 6.8
2018-Feb-21 09:00N 37°51' E 025°21'4 7.3
2018-Feb-21 08:30N 37°53' E 025°17'  

Dump ship's entire track history